createdAt,value
2023-05-17T00:00:38.641Z,99061.59
2023-05-17T00:03:06.216Z,99063.34
2023-05-17T00:05:33.456Z,99058.63
2023-05-17T00:08:00.663Z,99065.66
2023-05-17T00:10:28.151Z,99063.69
2023-05-17T00:12:55.451Z,99068.97
2023-05-17T00:15:22.689Z,99059.69
2023-05-17T00:17:50.227Z,99072.16
2023-05-17T00:20:17.603Z,99071.44
2023-05-17T00:22:47.267Z,99068.91
2023-05-17T00:25:14.782Z,99064.37
2023-05-17T00:27:42.001Z,99067.50
2023-05-17T00:30:09.368Z,99078.41
2023-05-17T00:32:37.415Z,99070.56
2023-05-17T00:35:04.960Z,99066.53
2023-05-17T00:37:32.169Z,99067.38
2023-05-17T00:39:59.635Z,99067.09
2023-05-17T00:42:26.825Z,99065.31
2023-05-17T00:44:54.032Z,99057.78
2023-05-17T00:47:21.557Z,99056.44
2023-05-17T00:49:50.508Z,99063.66
2023-05-17T00:52:17.934Z,99070.19
2023-05-17T00:54:45.451Z,99057.28
2023-05-17T00:57:12.940Z,99067.16
2023-05-17T00:59:40.106Z,99069.94
2023-05-17T01:02:07.688Z,99068.22
2023-05-17T01:04:34.973Z,99069.22
2023-05-17T01:07:02.179Z,99063.13
2023-05-17T01:09:29.737Z,99077.47
2023-05-17T01:12:00.529Z,99086.87
2023-05-17T01:14:34.379Z,99088.41
2023-05-17T01:17:03.350Z,99082.16
2023-05-17T01:19:49.422Z,99074.28
2023-05-17T01:22:39.067Z,99077.94
2023-05-17T01:25:25.108Z,99082.44
2023-05-17T01:27:52.731Z,99077.69
2023-05-17T01:30:20.044Z,99077.28
2023-05-17T01:32:47.517Z,99080.50
2023-05-17T01:35:15.145Z,99067.09
2023-05-17T01:37:42.353Z,99063.91
2023-05-17T01:40:09.636Z,99054.50
2023-05-17T01:42:38.942Z,99043.31
2023-05-17T01:45:06.696Z,99024.53
2023-05-17T01:47:40.181Z,99030.25
2023-05-17T01:50:07.917Z,99021.69
2023-05-17T01:52:51.375Z,99010.09
2023-05-17T01:55:22.024Z,99014.56
2023-05-17T01:57:49.219Z,99018.03
2023-05-17T02:00:16.506Z,99024.22
2023-05-17T02:02:46.325Z,99037.94
2023-05-17T02:05:13.856Z,99033.53
2023-05-17T02:07:41.128Z,99042.75
2023-05-17T02:10:08.877Z,99044.19
2023-05-17T02:12:36.666Z,99047.28
2023-05-17T02:15:04.478Z,99051.62
2023-05-17T02:17:32.156Z,99048.53
2023-05-17T02:19:59.495Z,99049.19
2023-05-17T02:22:27.611Z,99059.41
2023-05-17T02:24:54.810Z,99055.47
2023-05-17T02:27:22.624Z,99065.59
2023-05-17T02:29:50.080Z,99069.03
2023-05-17T02:32:17.306Z,99060.06
2023-05-17T02:34:46.411Z,99067.81
2023-05-17T02:37:13.872Z,99078.94
2023-05-17T02:39:41.249Z,99093.94
2023-05-17T02:42:08.520Z,99097.38
2023-05-17T02:44:35.954Z,99100.34
2023-05-17T02:47:03.261Z,99093.72
2023-05-17T02:49:30.632Z,99099.22
2023-05-17T02:51:58.202Z,99104.47
2023-05-17T02:54:25.532Z,99104.84
2023-05-17T02:56:52.917Z,99100.41
2023-05-17T02:59:20.422Z,99101.53
2023-05-17T03:01:48.928Z,99094.56
2023-05-17T03:04:16.821Z,99096.81
2023-05-17T03:06:44.363Z,99092.38
2023-05-17T03:09:11.851Z,99089.31
2023-05-17T03:11:39.138Z,99090.53
2023-05-17T03:14:07.350Z,99100.22
2023-05-17T03:16:35.163Z,99097.22
2023-05-17T03:19:02.883Z,99106.72
2023-05-17T03:21:30.589Z,99113.66
2023-05-17T03:23:58.220Z,99113.91
2023-05-17T03:26:25.689Z,99113.69
2023-05-17T03:28:53.882Z,99117.44
2023-05-17T03:31:21.055Z,99112.00
2023-05-17T03:33:48.391Z,99117.37
2023-05-17T03:36:16.033Z,99121.50
2023-05-17T03:38:43.362Z,99134.13
2023-05-17T03:41:10.787Z,99134.41
2023-05-17T03:43:38.466Z,99126.47
2023-05-17T03:46:06.449Z,99129.84
2023-05-17T03:48:36.157Z,99139.16
2023-05-17T03:51:04.163Z,99141.00
2023-05-17T03:53:31.375Z,99147.87
2023-05-17T03:55:58.567Z,99157.81
2023-05-17T03:58:26.912Z,99157.81
2023-05-17T04:00:54.089Z,99152.00
2023-05-17T04:03:21.615Z,99162.41
2023-05-17T04:05:48.914Z,99165.34
2023-05-17T04:08:16.245Z,99161.16
2023-05-17T04:10:43.720Z,99179.69
2023-05-17T04:13:10.935Z,99179.47
2023-05-17T04:15:38.216Z,99182.62
2023-05-17T04:18:06.108Z,99178.28
2023-05-17T04:20:33.330Z,99175.22
2023-05-17T04:23:00.586Z,99167.19
2023-05-17T04:25:29.105Z,99175.34
2023-05-17T04:27:56.891Z,99174.94
2023-05-17T04:30:25.048Z,99183.88
2023-05-17T04:32:52.594Z,99185.97
2023-05-17T04:35:20.036Z,99189.41
2023-05-17T04:37:47.900Z,99194.28
2023-05-17T04:40:16.198Z,99212.19
2023-05-17T04:42:43.690Z,99218.84
2023-05-17T04:45:13.414Z,99221.72
2023-05-17T04:47:42.316Z,99216.16
2023-05-17T04:50:09.614Z,99226.69
2023-05-17T04:52:37.007Z,99238.34
2023-05-17T04:55:05.329Z,99223.97
2023-05-17T04:57:32.522Z,99240.47
2023-05-17T05:00:00.083Z,99237.66
2023-05-17T05:02:27.637Z,99246.91
2023-05-17T05:04:54.904Z,99250.84
2023-05-17T05:07:22.205Z,99250.16
2023-05-17T05:09:49.791Z,99247.09
2023-05-17T05:12:17.070Z,99242.12
2023-05-17T05:14:44.369Z,99239.19
2023-05-17T05:17:11.885Z,99242.19
2023-05-17T05:19:40.293Z,99236.25
2023-05-17T05:22:07.811Z,99228.56
2023-05-17T05:24:36.200Z,99237.19
2023-05-17T05:27:06.279Z,99245.28
2023-05-17T05:29:34.803Z,99259.69
2023-05-17T05:32:02.796Z,99253.19
2023-05-17T05:34:32.451Z,99247.81
2023-05-17T05:37:02.370Z,99252.34
2023-05-17T05:39:29.708Z,99255.84
2023-05-17T05:41:56.894Z,99261.13
2023-05-17T05:44:25.907Z,99264.94
2023-05-17T05:46:53.804Z,99264.56
2023-05-17T05:49:21.027Z,99270.53
2023-05-17T05:51:49.005Z,99270.19
2023-05-17T05:54:17.163Z,99277.78
2023-05-17T05:56:44.672Z,99272.06
2023-05-17T05:59:13.097Z,99272.28
2023-05-17T06:01:41.596Z,99281.28
2023-05-17T06:04:09.279Z,99269.00
2023-05-17T06:06:37.256Z,99276.00
2023-05-17T06:09:07.054Z,99274.03
2023-05-17T06:11:34.566Z,99281.22
2023-05-17T06:14:01.897Z,99277.75
2023-05-17T06:16:29.076Z,99273.25
2023-05-17T06:18:56.712Z,99270.63
2023-05-17T06:21:24.145Z,99266.16
2023-05-17T06:23:53.149Z,99272.31
2023-05-17T06:26:20.692Z,99270.66
2023-05-17T06:28:47.949Z,99281.25
2023-05-17T06:31:15.148Z,99274.06
2023-05-17T06:33:42.683Z,99274.09
2023-05-17T06:36:09.986Z,99291.63
2023-05-17T06:38:39.471Z,99281.59
2023-05-17T06:41:07.118Z,99281.69
2023-05-17T06:43:35.798Z,99285.09
2023-05-17T06:46:05.006Z,99301.94
2023-05-17T06:48:32.720Z,99302.22
2023-05-17T06:51:00.112Z,99312.75
2023-05-17T06:53:27.391Z,99318.81
2023-05-17T06:55:54.999Z,99317.09
2023-05-17T06:58:22.306Z,99312.75
2023-05-17T07:00:49.494Z,99325.00
2023-05-17T07:03:17.098Z,99331.16
2023-05-17T07:05:44.431Z,99329.87
2023-05-17T07:08:11.585Z,99335.09
2023-05-17T07:10:39.070Z,99337.63
2023-05-17T07:13:06.332Z,99332.91
2023-05-17T07:15:33.673Z,99334.56
2023-05-17T07:18:01.279Z,99342.41
2023-05-17T07:20:28.804Z,99343.97
2023-05-17T07:22:56.324Z,99335.09
2023-05-17T07:25:23.780Z,99332.94
2023-05-17T07:27:51.041Z,99324.94
2023-05-17T07:30:19.353Z,99326.75
2023-05-17T07:32:46.922Z,99333.06
2023-05-17T07:35:14.692Z,99337.25
2023-05-17T07:37:42.219Z,99335.97
2023-05-17T07:40:10.309Z,99326.75
2023-05-17T07:42:37.528Z,99346.41
2023-05-17T07:45:04.911Z,99335.47
2023-05-17T07:47:32.798Z,99347.84
2023-05-17T07:50:00.001Z,99350.44
2023-05-17T07:52:27.214Z,99343.47
2023-05-17T07:54:54.760Z,99349.59
2023-05-17T07:57:21.971Z,99349.47
2023-05-17T07:59:49.232Z,99359.25
2023-05-17T08:02:16.732Z,99354.88
2023-05-17T08:04:44.424Z,99356.34
2023-05-17T08:07:11.672Z,99356.59
2023-05-17T08:09:40.244Z,99360.91
2023-05-17T08:12:07.730Z,99360.09
2023-05-17T08:14:34.919Z,99377.16
2023-05-17T08:17:02.177Z,99371.44
2023-05-17T08:19:29.956Z,99362.59
2023-05-17T08:21:57.344Z,99363.41
2023-05-17T08:24:24.573Z,99364.28
2023-05-17T08:26:54.040Z,99362.13
2023-05-17T08:29:21.262Z,99371.06
2023-05-17T08:31:48.439Z,99367.34
2023-05-17T08:34:16.013Z,99371.13
2023-05-17T08:36:44.602Z,99378.41
2023-05-17T08:39:12.662Z,99381.78
2023-05-17T08:41:40.205Z,99382.63
2023-05-17T08:44:07.398Z,99384.56
2023-05-17T08:46:34.984Z,99377.63
2023-05-17T08:49:04.147Z,99379.41
2023-05-17T08:51:31.404Z,99395.12
2023-05-17T08:53:58.660Z,99379.69
2023-05-17T08:56:26.205Z,99379.28
2023-05-17T08:58:57.951Z,99376.72
2023-05-17T09:01:27.458Z,99383.75
2023-05-17T09:03:55.290Z,99380.16
2023-05-17T09:06:23.589Z,99391.59
2023-05-17T09:08:58.537Z,99381.13
2023-05-17T09:11:29.724Z,99372.47
2023-05-17T09:14:01.526Z,99373.72
2023-05-17T09:16:29.770Z,99367.03
2023-05-17T09:18:57.765Z,99367.09
2023-05-17T09:21:25.459Z,99370.50
2023-05-17T09:24:04.689Z,99375.91
2023-05-17T09:26:40.476Z,99371.06
2023-05-17T09:29:08.602Z,99384.16
2023-05-17T09:31:36.222Z,99377.91
2023-05-17T09:34:03.562Z,99383.63
2023-05-17T09:36:31.562Z,99389.91
2023-05-17T09:39:04.568Z,99407.22
2023-05-17T09:41:32.314Z,99401.41
2023-05-17T09:44:01.124Z,99420.00
2023-05-17T09:46:28.812Z,99420.16
2023-05-17T09:48:56.729Z,99419.13
2023-05-17T09:51:39.002Z,99426.03
2023-05-17T09:54:06.758Z,99433.34
2023-05-17T09:56:35.184Z,99435.31
2023-05-17T09:59:02.840Z,99425.78
2023-05-17T10:01:30.872Z,99437.19
2023-05-17T10:04:04.611Z,99435.97
2023-05-17T10:06:46.012Z,99437.31
2023-05-17T10:09:17.114Z,99440.88
2023-05-17T10:11:46.363Z,99443.22
2023-05-17T10:14:18.645Z,99441.62
2023-05-17T10:16:46.454Z,99451.16
2023-05-17T10:19:13.794Z,99454.22
2023-05-17T10:21:41.153Z,99449.28
2023-05-17T10:24:08.669Z,99452.75
2023-05-17T10:26:36.424Z,99446.84
2023-05-17T10:29:03.688Z,99449.56
2023-05-17T10:31:33.285Z,99450.44
2023-05-17T10:34:01.509Z,99441.91
2023-05-17T10:36:28.970Z,99457.25
2023-05-17T10:38:56.597Z,99449.41
2023-05-17T10:41:25.803Z,99459.94
2023-05-17T10:43:53.217Z,99467.22
2023-05-17T10:46:24.123Z,99469.91
2023-05-17T10:48:52.210Z,99470.94
2023-05-17T10:51:37.951Z,99467.78
2023-05-17T10:54:09.193Z,99473.06
2023-05-17T10:56:39.478Z,99472.47
2023-05-17T10:59:17.078Z,99470.38
2023-05-17T11:01:54.579Z,99474.34
2023-05-17T11:04:26.416Z,99474.84
2023-05-17T11:07:25.186Z,99479.81
2023-05-17T11:09:55.930Z,99486.09
2023-05-17T11:12:34.941Z,99492.50
2023-05-17T11:15:08.581Z,99487.59
2023-05-17T11:17:42.606Z,99496.84
2023-05-17T11:20:13.875Z,99496.28
2023-05-17T11:22:42.433Z,99501.75
2023-05-17T11:25:13.553Z,99500.53
2023-05-17T11:27:50.827Z,99503.47
2023-05-17T11:30:31.655Z,99502.62
2023-05-17T11:33:00.340Z,99516.34
2023-05-17T11:35:29.202Z,99514.16
2023-05-17T11:38:16.182Z,99507.59
2023-05-17T11:40:44.330Z,99507.50
2023-05-17T11:43:18.648Z,99511.66
2023-05-17T11:45:53.815Z,99515.63
2023-05-17T11:48:22.203Z,99521.16
2023-05-17T11:50:50.638Z,99514.50
2023-05-17T11:53:18.188Z,99511.00
2023-05-17T11:55:50.433Z,99517.50
2023-05-17T11:58:19.311Z,99522.22
2023-05-17T12:00:51.328Z,99516.53
2023-05-17T12:03:19.619Z,99517.72
2023-05-17T12:05:47.358Z,99519.53
2023-05-17T12:08:18.308Z,99525.84
2023-05-17T12:10:49.994Z,99523.47
2023-05-17T12:13:17.354Z,99518.59
2023-05-17T12:15:45.265Z,99521.34
2023-05-17T12:18:13.268Z,99526.06
2023-05-17T12:20:52.940Z,99532.94
2023-05-17T12:23:25.842Z,99532.75
2023-05-17T12:26:01.835Z,99530.44
2023-05-17T12:28:29.454Z,99529.50
2023-05-17T12:31:02.691Z,99525.50
2023-05-17T12:33:31.275Z,99521.91
2023-05-17T12:35:59.571Z,99526.06
2023-05-17T12:38:28.499Z,99522.81
2023-05-17T12:40:56.116Z,99533.59
2023-05-17T12:43:24.402Z,99534.88
2023-05-17T12:45:52.767Z,99534.09
2023-05-17T12:48:23.880Z,99535.84
2023-05-17T12:50:52.269Z,99538.81
2023-05-17T12:53:19.830Z,99540.31
2023-05-17T12:55:47.089Z,99545.63
2023-05-17T12:58:14.285Z,99541.78
2023-05-17T13:00:41.829Z,99555.97
2023-05-17T13:03:09.706Z,99554.53
2023-05-17T13:05:36.945Z,99548.06
2023-05-17T13:08:20.396Z,99544.69
2023-05-17T13:10:49.842Z,99554.84
2023-05-17T13:13:20.662Z,99544.91
2023-05-17T13:15:48.030Z,99537.03
2023-05-17T13:18:16.376Z,99549.78
2023-05-17T13:20:44.086Z,99544.84
2023-05-17T13:23:11.439Z,99552.16
2023-05-17T13:25:39.973Z,99547.78
2023-05-17T13:28:07.452Z,99563.22
2023-05-17T13:30:34.708Z,99559.59
2023-05-17T13:33:02.002Z,99553.44
2023-05-17T13:35:29.587Z,99564.66
2023-05-17T13:37:57.910Z,99561.09
2023-05-17T13:40:25.112Z,99571.41
2023-05-17T13:42:52.818Z,99558.66
2023-05-17T13:45:20.056Z,99557.53
2023-05-17T13:47:47.409Z,99559.16
2023-05-17T13:50:17.361Z,99558.84
2023-05-17T13:52:44.653Z,99566.66
2023-05-17T13:55:12.210Z,99557.03
2023-05-17T13:57:39.723Z,99557.03
2023-05-17T14:00:07.279Z,99556.28
2023-05-17T14:02:36.339Z,99562.56
2023-05-17T14:05:05.488Z,99568.06
2023-05-17T14:07:33.036Z,99570.09
2023-05-17T14:10:01.017Z,99568.16
2023-05-17T14:12:28.605Z,99568.94
2023-05-17T14:14:55.978Z,99572.38
2023-05-17T14:17:23.517Z,99581.50
2023-05-17T14:19:51.063Z,99561.53
2023-05-17T14:22:18.433Z,99578.56
2023-05-17T14:24:45.972Z,99578.47
2023-05-17T14:27:13.240Z,99586.16
2023-05-17T14:29:40.684Z,99595.88
2023-05-17T14:32:08.221Z,99605.91
2023-05-17T14:34:35.646Z,99600.19
2023-05-17T14:37:03.069Z,99596.41
2023-05-17T14:39:30.837Z,99599.63
2023-05-17T14:41:58.445Z,99601.78
2023-05-17T14:44:27.058Z,99610.88
2023-05-17T14:46:54.547Z,99607.69
2023-05-17T14:49:21.791Z,99613.06
2023-05-17T14:51:49.095Z,99612.00
2023-05-17T14:54:16.865Z,99605.69
2023-05-17T14:56:45.453Z,99614.53
2023-05-17T14:59:12.845Z,99614.59
2023-05-17T15:01:40.336Z,99613.84
2023-05-17T15:04:07.851Z,99614.69
2023-05-17T15:06:35.172Z,99627.94
2023-05-17T15:09:04.043Z,99621.69
2023-05-17T15:11:31.399Z,99635.19
2023-05-17T15:13:58.996Z,99627.91
2023-05-17T15:16:26.834Z,99641.44
2023-05-17T15:18:56.117Z,99637.22
2023-05-17T15:21:24.988Z,99654.22
2023-05-17T15:23:52.476Z,99652.34
2023-05-17T15:26:19.732Z,99651.75
2023-05-17T15:28:49.845Z,99671.44
2023-05-17T15:31:17.330Z,99657.47
2023-05-17T15:33:44.648Z,99667.81
2023-05-17T15:36:13.151Z,99653.47
2023-05-17T15:38:41.343Z,99677.91
2023-05-17T15:41:11.076Z,99664.22
2023-05-17T15:43:38.266Z,99674.56
2023-05-17T15:46:05.806Z,99670.78
2023-05-17T15:48:34.268Z,99661.34
2023-05-17T15:51:02.090Z,99669.47
2023-05-17T15:53:29.750Z,99669.00
2023-05-17T15:55:57.064Z,99668.50
2023-05-17T15:58:24.870Z,99676.09
2023-05-17T16:00:52.660Z,99676.91
2023-05-17T16:03:20.461Z,99679.13
2023-05-17T16:05:47.880Z,99679.72
2023-05-17T16:08:15.253Z,99684.38
2023-05-17T16:10:42.925Z,99679.09
2023-05-17T16:13:10.167Z,99683.22
2023-05-17T16:15:37.586Z,99679.56
2023-05-17T16:18:05.319Z,99690.69
2023-05-17T16:20:32.602Z,99686.16
2023-05-17T16:22:59.960Z,99688.31
2023-05-17T16:25:27.819Z,99686.84
2023-05-17T16:27:58.292Z,99696.94
2023-05-17T16:30:25.585Z,99705.78
2023-05-17T16:32:53.152Z,99703.25
2023-05-17T16:35:23.547Z,99710.97
2023-05-17T16:37:51.538Z,99707.16
2023-05-17T16:40:19.139Z,99721.34
2023-05-17T16:42:46.596Z,99718.25
2023-05-17T16:45:13.827Z,99722.59
2023-05-17T16:47:41.595Z,99718.87
2023-05-17T16:50:09.220Z,99724.69
2023-05-17T16:52:36.436Z,99724.41
2023-05-17T16:55:04.120Z,99725.03
2023-05-17T16:57:32.776Z,99723.53
2023-05-17T17:00:01.021Z,99728.09
2023-05-17T17:02:29.586Z,99725.47
2023-05-17T17:04:58.563Z,99732.94
2023-05-17T17:07:26.118Z,99734.91
2023-05-17T17:09:53.634Z,99731.25
2023-05-17T17:12:25.208Z,99727.88
2023-05-17T17:14:53.854Z,99729.09
2023-05-17T17:17:21.502Z,99735.66
2023-05-17T17:19:48.740Z,99741.91
2023-05-17T17:22:16.716Z,99741.75
2023-05-17T17:24:44.470Z,99744.28
2023-05-17T17:27:12.021Z,99746.41
2023-05-17T17:29:39.536Z,99754.59
2023-05-17T17:32:07.248Z,99758.84
2023-05-17T17:34:34.505Z,99759.19
2023-05-17T17:37:02.076Z,99753.84
2023-05-17T17:39:30.366Z,99765.03
2023-05-17T17:41:57.547Z,99759.03
2023-05-17T17:44:25.332Z,99757.97
2023-05-17T17:46:52.713Z,99764.97
2023-05-17T17:49:20.029Z,99765.63
2023-05-17T17:51:47.497Z,99774.75
2023-05-17T17:54:14.701Z,99772.84
2023-05-17T17:56:41.902Z,99769.69
2023-05-17T17:59:09.395Z,99777.78
2023-05-17T18:01:38.395Z,99773.75
2023-05-17T18:04:06.091Z,99779.03
2023-05-17T18:06:33.577Z,99782.25
2023-05-17T18:09:00.898Z,99782.38
2023-05-17T18:11:28.372Z,99778.13
2023-05-17T18:13:55.709Z,99767.59
2023-05-17T18:16:23.182Z,99770.56
2023-05-17T18:18:51.230Z,99782.59
2023-05-17T18:21:18.665Z,99796.50
2023-05-17T18:23:46.210Z,99794.53
2023-05-17T18:26:13.693Z,99795.28
2023-05-17T18:28:42.894Z,99795.53
2023-05-17T18:31:10.685Z,99795.63
2023-05-17T18:33:38.217Z,99793.25
2023-05-17T18:36:06.865Z,99797.81
2023-05-17T18:38:35.576Z,99796.19
2023-05-17T18:41:03.124Z,99803.41
2023-05-17T18:43:31.421Z,99806.78
2023-05-17T18:45:58.730Z,99817.41
2023-05-17T18:48:26.716Z,99805.63
2023-05-17T18:50:54.462Z,99800.97
2023-05-17T18:53:22.189Z,99796.47
2023-05-17T18:55:49.717Z,99791.28
2023-05-17T18:58:17.019Z,99794.94
2023-05-17T19:00:48.629Z,99789.41
2023-05-17T19:03:17.038Z,99796.03
2023-05-17T19:05:44.913Z,99792.63
2023-05-17T19:08:12.787Z,99788.16
2023-05-17T19:10:40.863Z,99791.09
2023-05-17T19:13:09.307Z,99800.31
2023-05-17T19:15:37.233Z,99803.56
2023-05-17T19:18:05.795Z,99808.59
2023-05-17T19:20:34.926Z,99809.28
2023-05-17T19:23:02.242Z,99813.62
2023-05-17T19:25:30.360Z,99824.03
2023-05-17T19:27:57.828Z,99834.66
2023-05-17T19:30:25.164Z,99840.00
2023-05-17T19:32:53.187Z,99856.81
2023-05-17T19:35:21.305Z,99854.03
2023-05-17T19:37:48.920Z,99865.25
2023-05-17T19:40:19.404Z,99872.97
2023-05-17T19:42:47.029Z,99876.25
2023-05-17T19:45:14.741Z,99871.34
2023-05-17T19:47:43.278Z,99883.62
2023-05-17T19:50:12.205Z,99879.47
2023-05-17T19:52:41.711Z,99876.69
2023-05-17T19:55:10.117Z,99883.38
2023-05-17T19:57:37.505Z,99869.44
2023-05-17T20:00:05.786Z,99883.59
2023-05-17T20:02:33.201Z,99885.25
2023-05-17T20:05:04.160Z,99897.38
2023-05-17T20:07:33.107Z,99894.28
2023-05-17T20:10:01.708Z,99888.88
2023-05-17T20:12:29.445Z,99881.75
2023-05-17T20:14:56.767Z,99883.69
2023-05-17T20:17:24.602Z,99888.59
2023-05-17T20:19:52.199Z,99890.19
2023-05-17T20:22:21.104Z,99887.81
2023-05-17T20:24:48.924Z,99884.63
2023-05-17T20:27:16.384Z,99886.87
2023-05-17T20:29:43.956Z,99886.63
2023-05-17T20:32:11.550Z,99878.47
2023-05-17T20:34:38.765Z,99876.91
2023-05-17T20:37:06.021Z,99881.22
2023-05-17T20:39:33.525Z,99892.59
2023-05-17T20:42:01.389Z,99886.03
2023-05-17T20:44:28.860Z,99892.03
2023-05-17T20:46:56.940Z,99894.66
2023-05-17T20:49:24.196Z,99892.09
2023-05-17T20:51:51.403Z,99890.50
2023-05-17T20:54:18.841Z,99897.56
2023-05-17T20:56:46.111Z,99889.78
2023-05-17T20:59:13.282Z,99894.25
2023-05-17T21:01:41.478Z,99892.56
2023-05-17T21:04:08.822Z,99891.12
2023-05-17T21:06:36.397Z,99891.47
2023-05-17T21:09:03.925Z,99903.22
2023-05-17T21:11:31.172Z,99901.50
2023-05-17T21:13:59.776Z,99906.81
2023-05-17T21:16:27.413Z,99911.94
2023-05-17T21:18:54.742Z,99912.53
2023-05-17T21:21:21.988Z,99906.50
2023-05-17T21:23:49.621Z,99906.12
2023-05-17T21:26:17.203Z,99907.91
2023-05-17T21:28:44.478Z,99912.31
2023-05-17T21:31:12.029Z,99917.84
2023-05-17T21:33:39.382Z,99912.31
2023-05-17T21:36:06.589Z,99906.12
2023-05-17T21:38:34.090Z,99913.28
2023-05-17T21:41:01.386Z,99920.81
2023-05-17T21:43:28.984Z,99924.56
2023-05-17T21:45:56.439Z,99925.31
2023-05-17T21:48:23.729Z,99931.69
2023-05-17T21:50:50.967Z,99924.41
2023-05-17T21:53:18.425Z,99937.81
2023-05-17T21:56:00.688Z,99936.38
2023-05-17T21:58:30.469Z,99932.69
2023-05-17T22:00:58.154Z,99936.38
2023-05-17T22:03:26.008Z,99939.59
2023-05-17T22:05:53.516Z,99936.41
2023-05-17T22:08:20.727Z,99933.44
2023-05-17T22:10:50.214Z,99930.69
2023-05-17T22:13:18.386Z,99937.16
2023-05-17T22:15:45.734Z,99928.09
2023-05-17T22:18:13.809Z,99930.78
2023-05-17T22:20:41.069Z,99933.66
2023-05-17T22:23:08.307Z,99937.63
2023-05-17T22:25:35.842Z,99941.38
2023-05-17T22:28:03.200Z,99930.69
2023-05-17T22:30:30.585Z,99951.69
2023-05-17T22:32:58.472Z,99942.03
2023-05-17T22:35:25.774Z,99948.00
2023-05-17T22:37:53.579Z,99944.88
2023-05-17T22:40:21.254Z,99947.22
2023-05-17T22:42:48.589Z,99944.34
2023-05-17T22:45:15.908Z,99950.56
2023-05-17T22:47:43.595Z,99957.56
2023-05-17T22:50:12.105Z,99953.00
2023-05-17T22:52:41.229Z,99959.97
2023-05-17T22:55:09.605Z,99952.63
2023-05-17T22:57:36.835Z,99963.50
2023-05-17T23:00:06.309Z,99963.84
2023-05-17T23:02:33.805Z,99956.84
2023-05-17T23:05:03.854Z,99956.16
2023-05-17T23:07:37.014Z,99965.13
2023-05-17T23:10:05.197Z,99966.59
2023-05-17T23:12:33.269Z,99959.78
2023-05-17T23:15:00.460Z,99965.09
2023-05-17T23:17:32.506Z,99967.28
2023-05-17T23:20:02.052Z,99965.47
2023-05-17T23:22:31.591Z,99970.63
2023-05-17T23:24:59.095Z,99967.59
2023-05-17T23:27:27.720Z,99972.81
2023-05-17T23:29:56.413Z,99976.19
2023-05-17T23:32:23.745Z,99980.97
2023-05-17T23:34:54.147Z,99966.72
2023-05-17T23:37:21.581Z,99972.91
2023-05-17T23:39:48.761Z,99966.41
2023-05-17T23:42:15.933Z,99975.22
2023-05-17T23:44:43.507Z,99973.44
2023-05-17T23:47:10.714Z,99985.06
2023-05-17T23:49:41.066Z,99968.00
2023-05-17T23:52:10.906Z,99965.03
2023-05-17T23:54:42.119Z,99965.13
2023-05-17T23:57:09.615Z,99969.06
2023-05-17T23:59:36.943Z,99977.41
